createdAt,value
2023-04-13T00:00:23.636Z,7.13
2023-04-13T00:02:56.237Z,6.99
2023-04-13T00:05:24.747Z,6.95
2023-04-13T00:07:53.199Z,6.78
2023-04-13T00:10:21.588Z,6.66
2023-04-13T00:12:49.890Z,6.64
2023-04-13T00:15:19.248Z,6.65
2023-04-13T00:17:48.460Z,6.54
2023-04-13T00:20:17.889Z,6.35
2023-04-13T00:22:46.981Z,6.23
2023-04-13T00:25:15.740Z,6.20
2023-04-13T00:27:44.828Z,6.07
2023-04-13T00:30:14.512Z,6.03
2023-04-13T00:32:43.622Z,6.18
2023-04-13T00:35:13.012Z,6.13
2023-04-13T00:37:43.105Z,6.16
2023-04-13T00:40:12.335Z,6.03
2023-04-13T00:42:40.194Z,6.07
2023-04-13T00:45:09.594Z,5.83
2023-04-13T00:47:37.616Z,5.92
2023-04-13T00:50:07.753Z,5.80
2023-04-13T00:52:38.343Z,5.73
2023-04-13T00:55:09.017Z,5.74
2023-04-13T00:57:40.256Z,5.77
2023-04-13T01:00:10.267Z,5.78
2023-04-13T01:02:42.144Z,5.76
2023-04-13T01:05:15.483Z,5.64
2023-04-13T01:07:55.624Z,6.00
2023-04-13T01:10:29.405Z,5.93
2023-04-13T01:13:06.886Z,6.04
2023-04-13T01:15:40.359Z,5.98
2023-04-13T01:18:10.898Z,6.08
2023-04-13T01:20:41.863Z,6.03
2023-04-13T01:23:25.787Z,6.21
2023-04-13T01:25:58.888Z,6.23
2023-04-13T01:28:29.995Z,6.01
2023-04-13T01:31:00.437Z,6.07
2023-04-13T01:33:30.603Z,6.23
2023-04-13T01:36:02.518Z,6.25
2023-04-13T01:38:31.311Z,6.46
2023-04-13T01:41:00.892Z,6.18
2023-04-13T01:43:32.565Z,6.12
2023-04-13T01:46:14.020Z,6.07
2023-04-13T01:49:04.334Z,6.11
2023-04-13T01:51:53.422Z,6.16
2023-04-13T01:54:28.668Z,6.17
2023-04-13T01:57:00.083Z,6.22
2023-04-13T01:59:29.477Z,6.05
2023-04-13T02:01:59.287Z,6.04
2023-04-13T02:04:28.125Z,6.15
2023-04-13T02:06:55.938Z,6.26
2023-04-13T02:09:29.214Z,6.18
2023-04-13T02:11:57.083Z,6.11
2023-04-13T02:14:25.209Z,6.15
2023-04-13T02:16:54.961Z,6.03
2023-04-13T02:19:22.870Z,6.07
2023-04-13T02:21:50.717Z,5.95
2023-04-13T02:24:19.363Z,6.00
2023-04-13T02:26:47.221Z,5.95
2023-04-13T02:29:15.056Z,5.94
2023-04-13T02:31:46.426Z,5.91
2023-04-13T02:34:16.005Z,5.82
2023-04-13T02:36:44.196Z,6.01
2023-04-13T02:39:13.477Z,5.86
2023-04-13T02:41:42.838Z,5.94
2023-04-13T02:44:13.339Z,5.81
2023-04-13T02:46:50.390Z,5.97
2023-04-13T02:49:20.176Z,5.97
2023-04-13T02:51:59.544Z,6.02
2023-04-13T02:54:46.688Z,5.94
2023-04-13T02:57:14.690Z,5.87
2023-04-13T02:59:43.839Z,5.86
2023-04-13T03:02:12.869Z,5.95
2023-04-13T03:04:43.175Z,5.94
2023-04-13T03:07:14.244Z,5.88
2023-04-13T03:09:46.029Z,5.92
2023-04-13T03:12:15.464Z,5.88
2023-04-13T03:14:45.119Z,5.95
2023-04-13T03:17:14.148Z,6.02
2023-04-13T03:19:46.628Z,6.07
2023-04-13T03:22:15.925Z,6.06
2023-04-13T03:24:47.308Z,6.06
2023-04-13T03:27:23.149Z,5.99
2023-04-13T03:29:52.635Z,6.05
2023-04-13T03:32:23.464Z,6.02
2023-04-13T03:35:00.173Z,5.91
2023-04-13T03:37:32.642Z,5.80
2023-04-13T03:40:11.197Z,5.79
2023-04-13T03:42:48.235Z,5.64
2023-04-13T03:45:16.548Z,5.65
2023-04-13T03:47:44.649Z,5.49
2023-04-13T03:50:13.973Z,5.46
2023-04-13T03:52:42.023Z,5.43
2023-04-13T03:55:10.559Z,5.38
2023-04-13T03:57:40.492Z,5.41
2023-04-13T04:00:14.718Z,5.34
2023-04-13T04:02:48.837Z,5.37
2023-04-13T04:05:26.506Z,5.33
2023-04-13T04:08:01.563Z,5.30
2023-04-13T04:10:30.115Z,5.33
2023-04-13T04:12:59.372Z,5.26
2023-04-13T04:15:28.738Z,5.34
2023-04-13T04:18:02.059Z,5.32
2023-04-13T04:20:31.826Z,5.31
2023-04-13T04:23:01.262Z,5.21
2023-04-13T04:25:33.524Z,5.20
2023-04-13T04:28:02.416Z,5.16
2023-04-13T04:30:33.866Z,5.17
2023-04-13T04:33:03.338Z,5.16
2023-04-13T04:35:43.184Z,5.22
2023-04-13T04:38:11.017Z,5.31
2023-04-13T04:40:45.030Z,5.35
2023-04-13T04:43:16.446Z,5.33
2023-04-13T04:45:52.211Z,5.33
2023-04-13T04:48:21.182Z,5.25
2023-04-13T04:50:52.510Z,5.24
2023-04-13T04:53:20.427Z,5.11
2023-04-13T04:55:48.750Z,5.23
2023-04-13T04:58:28.484Z,5.22
2023-04-13T05:00:57.799Z,5.20
2023-04-13T05:03:25.861Z,5.22
2023-04-13T05:06:05.721Z,5.09
2023-04-13T05:08:34.640Z,5.28
2023-04-13T05:11:02.638Z,5.18
2023-04-13T05:13:30.537Z,5.18
2023-04-13T05:16:21.443Z,5.21
2023-04-13T05:18:50.790Z,5.13
2023-04-13T05:21:39.346Z,5.22
2023-04-13T05:24:07.792Z,5.15
2023-04-13T05:26:36.358Z,5.22
2023-04-13T05:29:06.844Z,5.11
2023-04-13T05:31:38.155Z,5.16
2023-04-13T05:34:06.105Z,5.15
2023-04-13T05:36:34.466Z,5.33
2023-04-13T05:39:08.030Z,5.36
2023-04-13T05:41:35.931Z,5.35
2023-04-13T05:44:03.848Z,5.36
2023-04-13T05:46:33.701Z,5.32
2023-04-13T05:49:05.579Z,5.39
2023-04-13T05:51:34.049Z,5.43
2023-04-13T05:54:03.129Z,5.50
2023-04-13T05:56:34.298Z,5.56
2023-04-13T05:59:03.595Z,5.59
2023-04-13T06:01:31.648Z,5.46
2023-04-13T06:04:00.781Z,5.62
2023-04-13T06:06:30.213Z,5.85
2023-04-13T06:08:58.450Z,5.86
2023-04-13T06:11:26.461Z,5.66
2023-04-13T06:13:57.530Z,5.76
2023-04-13T06:16:37.063Z,5.87
2023-04-13T06:19:05.171Z,5.86
2023-04-13T06:21:33.971Z,5.92
2023-04-13T06:24:01.763Z,6.15
2023-04-13T06:26:34.904Z,6.21
2023-04-13T06:29:04.722Z,6.14
2023-04-13T06:31:42.097Z,6.27
2023-04-13T06:34:14.655Z,6.14
2023-04-13T06:36:43.493Z,6.10
2023-04-13T06:39:14.273Z,6.09
2023-04-13T06:41:47.830Z,6.48
2023-04-13T06:44:23.611Z,6.29
2023-04-13T06:46:53.916Z,6.31
2023-04-13T06:49:24.065Z,6.26
2023-04-13T06:51:52.609Z,6.26
2023-04-13T06:54:20.452Z,6.40
2023-04-13T06:56:52.770Z,8.06
2023-04-13T06:59:21.088Z,7.96
2023-04-13T07:01:51.027Z,8.45
2023-04-13T07:04:19.703Z,8.27
2023-04-13T07:06:48.661Z,7.86
2023-04-13T07:09:16.906Z,7.67
2023-04-13T07:11:45.045Z,8.13
2023-04-13T07:14:13.308Z,8.60
2023-04-13T07:16:41.346Z,9.19
2023-04-13T07:19:10.748Z,8.26
2023-04-13T07:21:39.638Z,8.40
2023-04-13T07:24:08.070Z,8.42
2023-04-13T07:26:40.981Z,8.48
2023-04-13T07:29:13.321Z,8.55
2023-04-13T07:31:44.702Z,7.40
2023-04-13T07:34:15.486Z,7.31
2023-04-13T07:36:46.435Z,7.66
2023-04-13T07:39:18.468Z,7.62
2023-04-13T07:41:49.719Z,7.15
2023-04-13T07:44:23.394Z,7.41
2023-04-13T07:46:52.533Z,7.65
2023-04-13T07:49:22.757Z,7.76
2023-04-13T07:51:55.049Z,7.47
2023-04-13T07:54:23.981Z,7.76
2023-04-13T07:56:53.087Z,8.00
2023-04-13T07:59:25.438Z,7.92
2023-04-13T08:01:54.204Z,7.78
2023-04-13T08:04:24.716Z,7.87
2023-04-13T08:06:53.807Z,8.25
2023-04-13T08:09:22.316Z,7.69
2023-04-13T08:11:51.473Z,7.43
2023-04-13T08:14:19.270Z,7.32
2023-04-13T08:16:50.001Z,7.35
2023-04-13T08:19:18.188Z,7.48
2023-04-13T08:21:51.372Z,8.05
2023-04-13T08:24:20.654Z,8.06
2023-04-13T08:26:48.585Z,7.70
2023-04-13T08:29:16.408Z,7.65
2023-04-13T08:31:44.233Z,7.96
2023-04-13T08:34:13.972Z,7.87
2023-04-13T08:36:41.827Z,8.11
2023-04-13T08:39:12.476Z,8.34
2023-04-13T08:41:47.023Z,8.89
2023-04-13T08:44:17.542Z,8.55
2023-04-13T08:46:49.676Z,8.36
2023-04-13T08:49:22.282Z,8.58
2023-04-13T08:52:16.884Z,8.50
2023-04-13T08:54:49.391Z,8.29
2023-04-13T08:57:23.554Z,8.24
2023-04-13T08:59:52.955Z,8.23
2023-04-13T09:02:26.223Z,8.12
2023-04-13T09:05:00.808Z,8.13
2023-04-13T09:07:32.799Z,8.32
2023-04-13T09:10:12.446Z,7.98
2023-04-13T09:12:41.810Z,8.15
2023-04-13T09:15:14.626Z,8.18
2023-04-13T09:17:51.569Z,7.87
2023-04-13T09:20:24.640Z,7.87
2023-04-13T09:22:53.523Z,8.03
2023-04-13T09:25:24.298Z,8.18
2023-04-13T09:27:53.073Z,8.45
2023-04-13T09:30:22.305Z,8.30
2023-04-13T09:33:04.079Z,8.65
2023-04-13T09:35:32.405Z,8.79
2023-04-13T09:38:00.670Z,9.17
2023-04-13T09:40:30.082Z,9.30
2023-04-13T09:42:59.065Z,9.53
2023-04-13T09:45:35.035Z,9.09
2023-04-13T09:48:03.647Z,8.73
2023-04-13T09:50:32.317Z,9.01
2023-04-13T09:53:00.707Z,8.74
2023-04-13T09:55:30.796Z,8.98
2023-04-13T09:58:08.921Z,8.82
2023-04-13T10:00:38.395Z,8.86
2023-04-13T10:03:10.355Z,8.73
2023-04-13T10:05:51.158Z,8.74
2023-04-13T10:08:36.781Z,9.07
2023-04-13T10:11:15.400Z,9.26
2023-04-13T10:13:49.192Z,9.24
2023-04-13T10:17:07.503Z,9.20
2023-04-13T10:19:39.090Z,9.25
2023-04-13T10:22:09.160Z,9.43
2023-04-13T10:24:38.041Z,9.54
2023-04-13T10:27:16.076Z,9.66
2023-04-13T10:29:44.123Z,9.82
2023-04-13T10:32:22.264Z,9.93
2023-04-13T10:34:50.549Z,9.57
2023-04-13T10:37:21.427Z,9.46
2023-04-13T10:39:50.313Z,9.45
2023-04-13T10:42:19.421Z,9.49
2023-04-13T10:44:48.767Z,9.55
2023-04-13T10:47:17.876Z,9.46
2023-04-13T10:49:46.664Z,9.34
2023-04-13T10:52:14.960Z,9.51
2023-04-13T10:54:44.339Z,9.22
2023-04-13T10:57:13.201Z,8.99
2023-04-13T10:59:57.105Z,9.24
2023-04-13T11:02:27.998Z,9.44
2023-04-13T11:04:56.113Z,9.72
2023-04-13T11:07:26.775Z,9.93
2023-04-13T11:10:02.834Z,9.60
2023-04-13T11:12:31.270Z,9.38
2023-04-13T11:15:00.981Z,9.14
2023-04-13T11:17:29.220Z,8.89
2023-04-13T11:19:58.241Z,8.57
2023-04-13T11:22:28.005Z,8.59
2023-04-13T11:25:07.496Z,8.47
2023-04-13T11:27:36.157Z,8.57
2023-04-13T11:30:09.194Z,8.31
2023-04-13T11:32:41.392Z,8.60
2023-04-13T11:35:10.228Z,8.70
2023-04-13T11:37:38.520Z,8.87
2023-04-13T11:40:12.905Z,8.94
2023-04-13T11:42:43.264Z,8.95
2023-04-13T11:45:14.979Z,8.96
2023-04-13T11:47:43.052Z,9.02
2023-04-13T11:50:13.007Z,9.15
2023-04-13T11:52:42.585Z,9.48
2023-04-13T11:55:21.665Z,9.39
2023-04-13T11:57:51.097Z,9.18
2023-04-13T12:00:24.770Z,9.00
2023-04-13T12:03:01.698Z,9.10
2023-04-13T12:05:34.189Z,9.21
2023-04-13T12:08:04.335Z,9.12
2023-04-13T12:10:41.395Z,9.08
2023-04-13T12:16:05.550Z,8.98
2023-04-13T12:18:43.680Z,8.72
2023-04-13T12:21:16.809Z,8.58
2023-04-13T12:23:53.887Z,8.49
2023-04-13T12:28:56.654Z,8.29
2023-04-13T12:31:26.362Z,8.24
2023-04-13T12:33:54.201Z,8.36
2023-04-13T12:36:22.103Z,8.50
2023-04-13T12:38:52.877Z,8.50
2023-04-13T12:41:20.778Z,8.44
2023-04-13T12:43:48.645Z,8.52
2023-04-13T12:46:19.540Z,8.52
2023-04-13T12:48:48.726Z,8.54
2023-04-13T12:51:16.590Z,8.63
2023-04-13T12:53:44.416Z,8.76
2023-04-13T12:56:12.250Z,8.73
2023-04-13T12:58:40.213Z,8.59
2023-04-13T13:01:08.599Z,8.53
2023-04-13T13:03:37.335Z,8.23
2023-04-13T13:06:10.786Z,7.96
2023-04-13T13:08:40.399Z,7.54
2023-04-13T13:11:09.272Z,7.33
2023-04-13T13:13:37.288Z,7.23
2023-04-13T13:16:05.664Z,7.19
2023-04-13T13:18:48.968Z,7.31
2023-04-13T13:21:20.134Z,7.39
2023-04-13T13:23:48.130Z,7.58
2023-04-13T13:28:47.115Z,7.97
2023-04-13T13:31:15.451Z,8.14
2023-04-13T13:33:43.833Z,8.13
2023-04-13T13:36:13.663Z,8.32
2023-04-13T13:38:43.378Z,8.36
2023-04-13T13:41:12.683Z,8.38
2023-04-13T13:43:41.035Z,8.46
2023-04-13T13:46:09.120Z,8.35
2023-04-13T13:48:42.017Z,8.53
2023-04-13T13:51:28.459Z,8.56
2023-04-13T13:53:59.500Z,8.84
2023-04-13T13:56:27.476Z,8.92
2023-04-13T13:58:55.230Z,8.95
2023-04-13T14:01:23.130Z,9.00
2023-04-13T14:03:51.236Z,8.72
2023-04-13T14:06:20.286Z,8.45
2023-04-13T14:08:48.138Z,8.18
2023-04-13T14:11:17.377Z,8.24
2023-04-13T14:13:45.149Z,8.19
2023-04-13T14:16:12.983Z,8.44
2023-04-13T14:18:41.005Z,8.57
2023-04-13T14:21:09.119Z,8.78
2023-04-13T14:23:38.129Z,8.71
2023-04-13T14:26:06.209Z,8.58
2023-04-13T14:28:36.734Z,9.01
2023-04-13T14:31:04.738Z,8.98
2023-04-13T14:33:32.836Z,8.84
2023-04-13T14:36:00.939Z,8.78
2023-04-13T14:38:29.642Z,8.75
2023-04-13T14:40:57.758Z,8.74
2023-04-13T14:43:33.102Z,8.46
2023-04-13T14:46:03.440Z,8.51
2023-04-13T14:48:32.054Z,8.60
2023-04-13T14:50:59.953Z,8.80
2023-04-13T14:53:27.816Z,8.59
2023-04-13T14:55:56.615Z,8.83
2023-04-13T14:58:24.441Z,8.97
2023-04-13T15:00:52.216Z,9.13
2023-04-13T15:03:25.253Z,9.02
2023-04-13T15:05:59.475Z,9.20
2023-04-13T15:08:31.634Z,8.76
2023-04-13T15:11:02.563Z,8.45
2023-04-13T15:13:30.479Z,8.07
2023-04-13T15:15:58.384Z,8.12
2023-04-13T15:18:27.733Z,8.13
2023-04-13T15:20:55.819Z,8.31
2023-04-13T15:23:23.664Z,8.19
2023-04-13T15:25:56.550Z,8.18
2023-04-13T15:28:24.648Z,8.20
2023-04-13T15:30:53.025Z,8.32
2023-04-13T15:33:21.135Z,8.30
2023-04-13T15:35:53.141Z,7.97
2023-04-13T15:38:23.835Z,7.90
2023-04-13T15:40:51.614Z,7.87
2023-04-13T15:43:19.423Z,7.97
2023-04-13T15:45:49.628Z,7.81
2023-04-13T15:48:18.954Z,7.87
2023-04-13T15:50:46.870Z,7.74
2023-04-13T15:53:16.135Z,7.41
2023-04-13T15:55:43.992Z,7.31
2023-04-13T15:58:14.217Z,7.34
2023-04-13T16:00:42.176Z,7.36
2023-04-13T16:03:10.335Z,7.31
2023-04-13T16:05:40.336Z,7.29
2023-04-13T16:08:08.340Z,7.43
2023-04-13T16:10:38.242Z,7.49
2023-04-13T16:13:07.918Z,7.56
2023-04-13T16:15:36.866Z,7.41
2023-04-13T16:18:05.035Z,7.40
2023-04-13T16:20:33.734Z,7.29
2023-04-13T16:23:04.865Z,7.29
2023-04-13T16:25:33.125Z,7.27
2023-04-13T16:28:02.965Z,7.18
2023-04-13T16:30:31.681Z,7.24
2023-04-13T16:32:59.552Z,7.21
2023-04-13T16:35:27.660Z,7.21
2023-04-13T16:37:56.013Z,7.21
2023-04-13T16:40:23.862Z,7.10
2023-04-13T16:42:51.844Z,7.12
2023-04-13T16:45:21.646Z,7.10
2023-04-13T16:47:49.898Z,7.01
2023-04-13T16:50:17.792Z,6.94
2023-04-13T16:52:45.758Z,6.83
2023-04-13T16:55:15.413Z,6.86
2023-04-13T16:57:43.728Z,6.78
2023-04-13T17:00:36.578Z,6.69
2023-04-13T17:03:05.978Z,6.79
2023-04-13T17:05:34.014Z,6.75
2023-04-13T17:08:04.790Z,6.73
2023-04-13T17:10:32.549Z,6.72
2023-04-13T17:13:01.745Z,6.68
2023-04-13T17:15:29.626Z,6.64
2023-04-13T17:17:57.481Z,6.62
2023-04-13T17:20:26.957Z,6.49
2023-04-13T17:22:57.636Z,6.55
2023-04-13T17:25:25.441Z,6.48
2023-04-13T17:27:53.484Z,6.42
2023-04-13T17:30:21.674Z,6.44
2023-04-13T17:32:49.517Z,6.49
2023-04-13T17:35:17.506Z,6.41
2023-04-13T17:37:46.855Z,6.36
2023-04-13T17:40:14.950Z,6.35
2023-04-13T17:42:42.774Z,6.31
2023-04-13T17:45:11.536Z,6.35
2023-04-13T17:47:39.546Z,6.27
2023-04-13T17:50:08.682Z,6.27
2023-04-13T17:52:37.037Z,6.14
2023-04-13T17:55:07.361Z,6.05
2023-04-13T17:57:36.076Z,6.05
2023-04-13T18:02:57.785Z,6.02
2023-04-13T18:05:26.719Z,6.07
2023-04-13T18:07:54.568Z,6.03
2023-04-13T18:10:24.682Z,6.08
2023-04-13T18:12:52.542Z,5.98
2023-04-13T18:15:23.046Z,5.89
2023-04-13T18:17:50.973Z,5.92
2023-04-13T18:20:19.972Z,5.85
2023-04-13T18:22:47.964Z,5.89
2023-04-13T18:25:17.043Z,5.84
2023-04-13T18:27:46.273Z,5.89
2023-04-13T18:30:15.786Z,5.87
2023-04-13T18:32:43.592Z,5.92
2023-04-13T18:35:15.866Z,5.75
2023-04-13T18:37:43.694Z,5.79
2023-04-13T18:40:12.201Z,5.81
2023-04-13T18:42:41.114Z,5.84
2023-04-13T18:45:11.573Z,5.78
2023-04-13T18:47:39.864Z,5.82
2023-04-13T18:50:11.028Z,5.85
2023-04-13T18:52:38.825Z,5.90
2023-04-13T18:55:07.433Z,5.90
2023-04-13T18:57:38.120Z,5.86
2023-04-13T19:00:37.355Z,5.81
2023-04-13T19:03:09.517Z,5.79
2023-04-13T19:05:37.774Z,5.73
2023-04-13T19:08:09.113Z,5.87
2023-04-13T19:10:39.498Z,5.86
2023-04-13T19:13:10.216Z,5.87
2023-04-13T19:15:39.207Z,5.83
2023-04-13T19:18:11.237Z,5.91
2023-04-13T19:20:41.827Z,5.86
2023-04-13T19:23:14.718Z,5.80
2023-04-13T19:25:42.807Z,5.76
2023-04-13T19:28:11.111Z,5.63
2023-04-13T19:30:38.954Z,5.76
2023-04-13T19:33:08.456Z,5.66
2023-04-13T19:35:36.506Z,5.66
2023-04-13T19:38:08.562Z,5.68
2023-04-13T19:40:36.505Z,5.74
2023-04-13T19:43:04.824Z,5.68
2023-04-13T19:45:32.839Z,5.65
2023-04-13T19:48:01.045Z,5.59
2023-04-13T19:50:30.663Z,5.53
2023-04-13T19:52:58.854Z,5.57
2023-04-13T19:55:27.194Z,5.56
2023-04-13T19:57:55.354Z,5.58
2023-04-13T20:00:47.888Z,5.48
2023-04-13T20:03:17.980Z,5.43
2023-04-13T20:05:49.818Z,5.39
2023-04-13T20:08:18.132Z,5.48
2023-04-13T20:10:46.024Z,5.35
2023-04-13T20:13:14.385Z,5.29
2023-04-13T20:15:42.521Z,5.23
2023-04-13T20:18:11.476Z,5.35
2023-04-13T20:20:49.760Z,5.38
2023-04-13T20:23:17.717Z,5.30
2023-04-13T20:25:46.410Z,5.43
2023-04-13T20:28:14.600Z,5.43
2023-04-13T20:30:42.581Z,5.28
2023-04-13T20:33:10.524Z,5.37
2023-04-13T20:35:43.790Z,5.38
2023-04-13T20:38:14.684Z,5.36
2023-04-13T20:40:48.496Z,5.27
2023-04-13T20:43:20.635Z,5.10
2023-04-13T20:45:48.832Z,5.22
2023-04-13T20:50:48.923Z,5.13
2023-04-13T20:53:18.073Z,5.17
2023-04-13T20:55:46.187Z,5.13
2023-04-13T20:58:16.120Z,5.00
2023-04-13T21:00:44.812Z,4.87
2023-04-13T21:03:12.969Z,4.94
2023-04-13T21:05:41.004Z,4.95
2023-04-13T21:08:08.930Z,5.01
2023-04-13T21:10:38.071Z,4.94
2023-04-13T21:13:06.299Z,4.94
2023-04-13T21:15:34.069Z,4.84
2023-04-13T21:18:01.957Z,4.93
2023-04-13T21:20:29.815Z,4.75
2023-04-13T21:22:57.578Z,4.83
2023-04-13T21:25:25.628Z,4.80
2023-04-13T21:27:54.732Z,4.72
2023-04-13T21:30:22.676Z,4.64
2023-04-13T21:32:50.587Z,4.73
2023-04-13T21:35:18.608Z,4.68
2023-04-13T21:37:48.736Z,4.68
2023-04-13T21:40:18.123Z,4.58
2023-04-13T21:42:45.953Z,4.60
2023-04-13T21:45:15.080Z,4.46
2023-04-13T21:47:42.872Z,4.42
2023-04-13T21:50:11.324Z,4.51
2023-04-13T21:52:39.097Z,4.62
2023-04-13T21:55:07.463Z,4.68
2023-04-13T21:57:35.204Z,4.64
2023-04-13T22:00:06.813Z,4.56
2023-04-13T22:02:41.670Z,4.47
2023-04-13T22:05:11.887Z,4.37
2023-04-13T22:07:43.171Z,4.34
2023-04-13T22:10:12.295Z,4.17
2023-04-13T22:12:40.236Z,4.28
2023-04-13T22:15:08.945Z,4.11
2023-04-13T22:17:37.127Z,4.20
2023-04-13T22:20:07.310Z,4.29
2023-04-13T22:22:35.081Z,4.29
2023-04-13T22:25:02.910Z,4.33
2023-04-13T22:27:30.662Z,4.34
2023-04-13T22:29:58.515Z,4.36
2023-04-13T22:35:21.731Z,4.34
2023-04-13T22:37:49.585Z,4.35
2023-04-13T22:40:17.500Z,4.22
2023-04-13T22:42:45.362Z,4.21
2023-04-13T22:45:13.162Z,4.16
2023-04-13T22:47:40.989Z,4.23
2023-04-13T22:50:09.356Z,4.25
2023-04-13T22:52:38.619Z,4.24
2023-04-13T22:55:06.926Z,5.90
2023-04-13T22:57:35.255Z,7.32
2023-04-13T23:00:10.688Z,7.21
2023-04-13T23:02:38.732Z,6.58
2023-04-13T23:05:07.210Z,5.53
2023-04-13T23:07:35.115Z,5.18
2023-04-13T23:10:04.795Z,4.89
2023-04-13T23:12:32.569Z,4.61
2023-04-13T23:15:00.366Z,4.54
2023-04-13T23:17:28.115Z,4.30
2023-04-13T23:19:56.611Z,4.41
2023-04-13T23:22:24.459Z,4.47
2023-04-13T23:24:53.366Z,4.54
2023-04-13T23:27:22.505Z,4.42
2023-04-13T23:29:50.529Z,4.34
2023-04-13T23:32:18.497Z,4.44
2023-04-13T23:34:46.308Z,4.53
2023-04-13T23:37:14.093Z,4.49
2023-04-13T23:39:42.223Z,4.44
2023-04-13T23:42:10.046Z,4.47
2023-04-13T23:44:39.215Z,4.35
2023-04-13T23:47:07.376Z,4.28
2023-04-13T23:49:35.299Z,4.27
2023-04-13T23:52:03.130Z,4.16
2023-04-13T23:54:30.863Z,4.22
2023-04-13T23:56:58.651Z,4.05
2023-04-13T23:59:26.451Z,4.13
